Burley, WA (98322)

7:55 AM PST on February 10, 2016 (GMT -0800)
Burly Glenwood | | Change Station
CLOSE
Current Station
Personal Weather Station
Location: Port Orchard, WA
Elevation: 354 ft
Nearby Weather Stations

Elev 354 ft 47.43 °N, 122.65 °W | Updated 18 seconds ago

Overcast
Overcast
46.4 °F
Feels Like 46 °F
N
2.0
Wind Variable Wind from West
Gusts 2.0 mph

Today
High -- | Low -- °F
--% Chance of Precip.
Yesterday
High -- | Low -- °F
Precip. -- in
Pressure 30.15 in
Visibility 10.0 miles
Clouds Mostly Cloudy 10000 ft
Windchill 46 °F
Dew Point 42 °F
Humidity 86%
Rainfall 0.00 in
Snow Depth Not available.
7:24 AM 5:25 PM
Waxing Crescent, 6% visible
METAR KPWT 101535Z AUTO 00000KT 10SM BKN100 07/07 A3015 RMK AO1
Pressure 30.15 in
Visibility 10.0 miles
Clouds Mostly Cloudy 10000 ft
Windchill 46 °F
Dew Point 42 °F
Humidity 86%
Rainfall 0.00 in
Snow Depth Not available.
7:24 AM 5:25 PM
Waxing Crescent, 6% visible
METAR KPWT 101535Z AUTO 00000KT 10SM BKN100 07/07 A3015 RMK AO1

10-Day Weather Forecast

Almanac

Astronomy

Feb. 10, 2016 Rise Set
Actual Time
Civil Twilight
Nautical Twilight
Astronomical Twilight
Moon
Length of Visible Light
Length of Day
Tomorrow will be .
, % of the Moon is Illuminated

Today's Extremes

State Highs State Lows

Community

WunderPhotos

Upload Photos

1,891,863 photos uploaded!

WunderBlog® & News

Nearby

Air Quality

  Air Quality AQ Index Pollutant
Not available.

Snow Depth

Station Depth Elevation

Earthquake Activity

City Distance Mag. Time & Date
Minimum magnitude displayed is 2.5.

Coastal Water Temperatures

Place Temperature

Stations

Nearby Weather Stations

Station Location Temp. Windchill Dew Point Humidity Wind Precip. Elev Updated Type
                   

Watches & Warnings

There are currently no watches in effect.